Aviation Digital Data Service (ADDS)

Output produced by METARs form (1315 UTC 19 January 2018)
found at http://aviationweather.gov/adds/metars/
 
KRYY 191248Z 32004KT 10SM CLR M05/M10 A3031 RMK AO2 SLP986 T10501100
KRYY 191121Z 1912/2012 00000KT P6SM SKC 
     FM191500 29006KT P6SM SKC 
     FM200200 00000KT P6SM SKC
       
KPUJ 191255Z AUTO 00000KT 10SM CLR 00/M08 A3029 RMK AO2
KCNI 191255Z AUTO 30008KT 10SM CLR M01/M11 A3029 RMK AO2
KPDK 191253Z 00000KT 10SM CLR M03/M12 A3029 RMK AO2 SLP278 T10331117
KPDK 191121Z 1912/2012 27004KT P6SM SKC 
     FM191500 29006KT P6SM SKC 
     FM200200 00000KT P6SM SKC
       
KRMG 191253Z AUTO 00000KT 10SM CLR M09/M11 A3035 RMK AO2 SLP282 I1000 T10891106
KATL 191252Z 31007KT 10SM CLR M03/M11 A3029 RMK AO2 SLP269 T10331106
KATL 191121Z 1912/2018 29008KT P6SM SKC 
     FM200000 27004KT P6SM SKC 
     FM201500 30005KT P6SM SCT050
       
KFFC 191253Z AUTO 00000KT 10SM CLR M08/M09 A3032 RMK AO2 SLP279 I1000 T10781094
KGAD 191256Z AUTO 00000KT 10SM CLR M11/M11 A3037 RMK AO2 SLP297 T11061111 FZRANO
KCHA 191253Z 00000KT 10SM CLR M08/M11 A3036 RMK AO2 SLP289 I1000 T10831106 $
KCHA 191126Z 1912/2012 22004KT P6SM SKC 
     FM200600 00000KT P6SM SCT030
       
KDNN 191255Z AUTO 00000KT 10SM CLR M10/M10 A3036 RMK AO2
KAHN 191251Z 28004KT 10SM CLR M03/M11 A3025 RMK AO2 SLP253 T10331111
KAHN 191121Z 1912/2012 00000KT P6SM SKC 
     FM191500 27006KT P6SM SKC 
     FM200200 00000KT P6SM SKC
       
KLZU 191256Z 27006KT 10SM CLR M02/M11 A3028 RMK AO2 SLP262 T10171106 $